createdAt,value
2017-03-26T05:37:34.264Z,125
2017-03-26T05:38:14.839Z,130
2017-03-26T05:38:55.423Z,135
2017-03-26T05:39:36.002Z,135
2017-03-26T05:40:16.577Z,140
2017-03-26T05:40:57.145Z,145
2017-03-26T05:41:37.729Z,145
2017-03-26T05:42:18.294Z,150
2017-03-26T05:42:58.872Z,155
2017-03-26T05:43:39.452Z,155
2017-03-26T05:51:06.581Z,195
2017-03-26T05:51:47.159Z,195
2017-03-26T05:52:27.733Z,200
2017-03-26T05:53:08.289Z,200
2017-03-26T05:53:48.860Z,205
2017-03-26T05:54:29.452Z,210
2017-03-26T05:55:10.015Z,215
2017-03-26T05:55:50.577Z,220
2017-03-26T05:56:31.160Z,220
2017-03-26T05:57:11.741Z,225
2017-03-26T05:57:52.326Z,230
2017-03-26T05:58:32.905Z,235
2017-03-26T05:59:13.480Z,240
2017-03-26T05:59:54.107Z,245
2017-03-26T06:00:34.642Z,250
2017-03-26T06:01:15.223Z,255
2017-03-26T06:01:55.803Z,260
2017-03-26T06:02:36.387Z,265
2017-03-26T06:03:16.966Z,275
2017-03-26T06:03:57.539Z,280
2017-03-26T06:04:38.122Z,285
2017-03-26T06:05:18.704Z,290
2017-03-26T06:05:59.290Z,300
2017-03-26T06:06:39.865Z,305
2017-03-26T06:07:20.449Z,315
2017-03-26T06:08:01.010Z,325
2017-03-26T06:08:41.585Z,335
2017-03-26T06:11:20.408Z,370
2017-03-26T06:12:00.995Z,375
2017-03-26T06:12:41.563Z,385
2017-03-26T06:13:22.149Z,390
2017-03-26T06:14:02.723Z,390
2017-03-26T06:14:43.298Z,395
2017-03-26T06:15:23.874Z,395
2017-03-26T06:16:04.453Z,400
2017-03-26T06:16:45.013Z,410
2017-03-26T06:17:25.592Z,415
2017-03-26T06:18:06.162Z,420
2017-03-26T06:18:46.733Z,430
2017-03-26T06:19:27.311Z,440
2017-03-26T06:20:07.890Z,445
2017-03-26T06:20:48.453Z,450
2017-03-26T06:21:29.029Z,450
2017-03-26T06:22:09.606Z,455
2017-03-26T06:22:50.194Z,455
2017-03-26T06:23:30.941Z,455
2017-03-26T06:24:11.516Z,450
2017-03-26T06:24:52.099Z,450
2017-03-26T06:25:32.679Z,455
2017-03-26T06:26:13.255Z,465
2017-03-26T06:26:53.833Z,475
2017-03-26T06:27:34.407Z,480
2017-03-26T06:28:14.993Z,485
2017-03-26T06:28:55.572Z,490
2017-03-26T06:29:36.148Z,500
2017-03-26T06:30:16.732Z,505
2017-03-26T06:30:57.301Z,525
2017-03-26T06:31:37.892Z,550
2017-03-26T06:32:18.473Z,625
2017-03-26T06:32:59.042Z,790
2017-03-26T06:33:39.621Z,965
2017-03-26T06:34:20.211Z,1155
2017-03-26T06:35:00.790Z,1305
2017-03-26T06:35:41.369Z,1355
2017-03-26T06:36:21.951Z,1405
2017-03-26T06:37:02.534Z,1460
2017-03-26T06:37:43.112Z,1480
2017-03-26T06:38:23.690Z,1605
2017-03-26T06:39:04.271Z,1635
2017-03-26T06:39:44.853Z,1715
2017-03-26T06:40:25.498Z,1710
2017-03-26T06:41:06.099Z,1570
2017-03-26T06:41:46.821Z,1615
2017-03-26T06:42:27.403Z,1670
2017-03-26T06:43:08.384Z,1705
2017-03-26T06:43:48.966Z,1730
2017-03-26T06:44:29.951Z,1785
2017-03-26T06:45:10.526Z,1700
2017-03-26T06:45:51.153Z,1685
2017-03-26T06:46:32.025Z,1570
2017-03-26T06:47:12.962Z,1680
2017-03-26T06:47:53.802Z,1835
2017-03-26T06:48:34.706Z,1675
2017-03-26T06:49:15.526Z,1955
2017-03-26T06:49:56.642Z,1855
2017-03-26T06:50:37.346Z,1940
2017-03-26T06:51:18.231Z,1615
2017-03-26T06:51:59.001Z,1940
2017-03-26T06:52:39.763Z,2070
2017-03-26T06:53:20.447Z,2185
2017-03-26T06:54:01.034Z,2120
2017-03-26T06:54:41.713Z,2155
2017-03-26T06:55:22.506Z,2015
2017-03-26T06:56:03.080Z,1770
2017-03-26T06:56:43.662Z,1660
2017-03-26T06:57:24.245Z,1685
2017-03-26T06:58:04.826Z,1680
2017-03-26T06:58:45.667Z,1710
2017-03-26T06:59:26.448Z,1775
2017-03-26T07:00:07.199Z,1765
2017-03-26T07:00:47.818Z,1720
2017-03-26T07:01:28.367Z,1660
2017-03-26T07:02:09.230Z,1480
2017-03-26T07:02:49.818Z,1765
2017-03-26T07:03:30.393Z,1900
2017-03-26T07:04:10.972Z,1910
2017-03-26T07:04:51.569Z,1875
2017-03-26T07:05:32.149Z,1860
2017-03-26T07:06:13.223Z,1975
2017-03-26T07:06:54.081Z,1895
2017-03-26T07:07:34.927Z,2000
2017-03-26T07:08:15.509Z,1980
2017-03-26T07:08:56.087Z,1965
2017-03-26T07:09:36.672Z,2055
2017-03-26T07:10:17.370Z,2040
2017-03-26T07:10:58.294Z,2155
2017-03-26T07:11:39.083Z,2190
2017-03-26T07:12:19.667Z,2160
2017-03-26T07:13:00.247Z,2040
2017-03-26T07:13:40.978Z,2080
2017-03-26T07:14:21.780Z,2075
2017-03-26T07:15:02.480Z,2085
2017-03-26T07:15:43.396Z,1995
2017-03-26T07:16:23.974Z,1890
2017-03-26T07:17:04.639Z,1765
2017-03-26T07:17:45.372Z,1985
2017-03-26T07:18:25.956Z,1895
2017-03-26T07:19:06.536Z,1840
2017-03-26T07:19:47.136Z,1860
2017-03-26T07:20:27.705Z,1760
2017-03-26T07:21:08.483Z,1975
2017-03-26T07:21:49.380Z,1915
2017-03-26T07:22:29.968Z,1895
2017-03-26T07:23:10.684Z,2015
2017-03-26T07:23:51.505Z,2050
2017-03-26T07:24:32.097Z,2050
2017-03-26T07:25:12.829Z,2140
2017-03-26T07:25:53.628Z,2310
2017-03-26T07:26:34.353Z,2160
2017-03-26T07:27:14.940Z,2055
2017-03-26T07:27:55.969Z,2050
2017-03-26T07:28:36.938Z,2295
2017-03-26T07:29:17.726Z,2340
2017-03-26T07:29:58.432Z,2540
2017-03-26T07:30:39.215Z,2620
2017-03-26T07:31:19.793Z,2645
2017-03-26T07:32:00.688Z,2760
2017-03-26T07:32:41.273Z,2665
2017-03-26T07:33:22.031Z,2640
2017-03-26T07:34:02.858Z,2380
2017-03-26T07:34:43.425Z,2260
2017-03-26T07:35:24.020Z,2145
2017-03-26T07:36:04.591Z,2320
2017-03-26T07:36:45.167Z,2520
2017-03-26T07:37:25.755Z,2420
2017-03-26T07:38:06.343Z,2545
2017-03-26T07:38:47.602Z,2475
2017-03-26T07:39:28.187Z,2255
2017-03-26T07:40:09.059Z,2275
2017-03-26T07:40:49.950Z,2290
2017-03-26T07:41:30.874Z,2280
2017-03-26T07:42:11.532Z,2220
2017-03-26T07:42:52.141Z,2510
2017-03-26T07:43:32.871Z,2590
2017-03-26T07:44:13.449Z,2465
2017-03-26T07:44:54.026Z,2495
2017-03-26T07:45:34.606Z,2500
2017-03-26T07:46:15.184Z,2580
2017-03-26T07:46:55.766Z,2500
2017-03-26T07:47:36.361Z,2460
2017-03-26T07:48:17.051Z,2585
2017-03-26T07:48:57.871Z,2465
2017-03-26T07:49:38.737Z,2575
2017-03-26T07:50:19.572Z,2645
2017-03-26T07:51:00.153Z,2760
2017-03-26T07:51:40.748Z,2550
2017-03-26T07:52:21.327Z,2520
2017-03-26T07:53:01.908Z,2480
2017-03-26T07:53:42.490Z,2340
2017-03-26T07:54:23.068Z,2360
2017-03-26T07:55:03.652Z,2450
2017-03-26T07:55:45.258Z,2595
2017-03-26T07:56:26.213Z,2645
2017-03-26T07:57:06.406Z,2675
2017-03-26T07:57:47.147Z,2555
2017-03-26T07:58:27.857Z,2655
2017-03-26T07:59:08.442Z,2810
2017-03-26T07:59:49.025Z,2775
2017-03-26T08:00:29.611Z,2840
2017-03-26T08:01:10.185Z,2800
2017-03-26T08:01:50.773Z,2660
2017-03-26T08:02:31.360Z,2685
2017-03-26T08:03:11.938Z,2790
2017-03-26T08:03:52.521Z,2800
2017-03-26T08:04:33.083Z,2775
2017-03-26T08:05:13.673Z,2715
2017-03-26T08:05:54.257Z,2690
2017-03-26T08:06:34.835Z,2700
2017-03-26T08:07:15.415Z,2680
2017-03-26T08:07:55.995Z,2630
2017-03-26T08:08:36.571Z,2725
2017-03-26T08:09:17.160Z,2700
2017-03-26T08:09:57.735Z,2735
2017-03-26T08:10:38.320Z,2650
2017-03-26T08:11:18.905Z,2485
2017-03-26T08:11:59.492Z,2590
2017-03-26T08:12:40.237Z,2660
2017-03-26T08:13:20.818Z,2595
2017-03-26T08:14:01.402Z,2760
2017-03-26T08:14:41.985Z,2825
2017-03-26T08:15:22.563Z,2810
2017-03-26T08:16:03.149Z,2810
2017-03-26T08:16:43.726Z,2870
2017-03-26T08:17:24.309Z,2835
2017-03-26T08:18:04.885Z,2840
2017-03-26T08:18:45.468Z,2830
2017-03-26T08:19:26.043Z,2835
2017-03-26T08:20:06.623Z,2820
2017-03-26T08:20:47.194Z,2900
2017-03-26T08:21:27.775Z,2890
2017-03-26T08:22:08.353Z,2860
2017-03-26T08:22:48.934Z,2855
2017-03-26T08:23:30.085Z,2875
2017-03-26T08:24:10.866Z,2860
2017-03-26T08:24:51.451Z,2870
2017-03-26T08:25:32.029Z,2820
2017-03-26T08:26:12.600Z,2860
2017-03-26T08:26:53.170Z,2800
2017-03-26T08:27:33.753Z,2760
2017-03-26T08:28:14.342Z,2605
2017-03-26T08:28:54.913Z,2505
2017-03-26T08:29:35.493Z,2925
2017-03-26T08:30:16.071Z,2545
2017-03-26T08:30:56.656Z,2595
2017-03-26T08:31:37.238Z,2700
2017-03-26T08:32:17.827Z,2495
2017-03-26T08:32:58.405Z,2650
2017-03-26T08:33:38.987Z,2800
2017-03-26T08:34:19.566Z,2775
2017-03-26T08:35:00.181Z,2775
2017-03-26T08:35:40.766Z,2725
2017-03-26T08:36:21.350Z,2660
2017-03-26T08:37:01.934Z,2805
2017-03-26T08:37:42.519Z,2870
2017-03-26T08:38:23.110Z,2840
2017-03-26T08:39:03.689Z,2925
2017-03-26T08:39:44.274Z,2925
2017-03-26T08:40:24.862Z,2935
2017-03-26T08:41:05.447Z,2840
2017-03-26T08:41:46.018Z,2695
2017-03-26T08:42:26.595Z,2615
2017-03-26T08:43:07.184Z,2320
2017-03-26T08:43:47.745Z,2750
2017-03-26T08:44:28.334Z,2695
2017-03-26T08:45:08.916Z,2390
2017-03-26T08:45:49.500Z,2450
2017-03-26T08:46:30.088Z,2420
2017-03-26T08:47:10.673Z,2695
2017-03-26T08:47:51.254Z,2840
2017-03-26T08:48:31.836Z,2760
2017-03-26T08:49:12.420Z,2720
2017-03-26T08:49:52.999Z,2765
2017-03-26T08:50:33.576Z,2480
2017-03-26T08:51:14.155Z,2230
2017-03-26T08:51:54.739Z,2025
2017-03-26T08:52:35.312Z,2195
2017-03-26T08:53:15.886Z,1770
2017-03-26T08:53:56.475Z,1410
2017-03-26T08:54:37.064Z,1365
2017-03-26T08:55:17.636Z,1260
2017-03-26T08:55:58.215Z,1210
2017-03-26T08:56:38.781Z,1175
2017-03-26T08:57:19.358Z,1120
2017-03-26T08:57:59.944Z,1075
2017-03-26T08:58:40.520Z,1060
2017-03-26T08:59:21.101Z,1055
2017-03-26T09:00:01.685Z,1070
2017-03-26T09:00:42.269Z,1070
2017-03-26T09:01:22.845Z,1065
2017-03-26T09:02:03.425Z,1050
2017-03-26T09:02:44.012Z,1060
2017-03-26T09:03:24.609Z,1050
2017-03-26T09:04:05.173Z,1035
2017-03-26T09:04:45.776Z,1010
2017-03-26T09:05:26.341Z,995
2017-03-26T09:06:06.922Z,990
2017-03-26T09:06:47.502Z,990
2017-03-26T09:07:28.083Z,985
2017-03-26T09:08:08.903Z,990
2017-03-26T09:08:49.689Z,970
2017-03-26T09:09:30.584Z,950
2017-03-26T09:10:11.213Z,935
2017-03-26T09:10:52.029Z,920
2017-03-26T09:11:32.721Z,910
2017-03-26T09:12:13.289Z,905
2017-03-26T09:12:54.364Z,900
2017-03-26T09:13:35.274Z,905
2017-03-26T09:14:16.165Z,905
2017-03-26T09:14:56.903Z,900
2017-03-26T09:15:37.495Z,895
2017-03-26T09:16:18.648Z,885
2017-03-26T09:16:59.679Z,875
2017-03-26T09:17:40.268Z,865
2017-03-26T09:18:20.844Z,860
2017-03-26T09:19:01.667Z,850
2017-03-26T09:19:42.425Z,845
2017-03-26T09:20:23.007Z,835
2017-03-26T09:21:04.233Z,835
2017-03-26T09:21:45.628Z,830
2017-03-26T09:22:26.483Z,830
2017-03-26T09:23:07.237Z,825
2017-03-26T09:23:48.210Z,820
2017-03-26T09:24:29.114Z,815
2017-03-26T09:25:10.165Z,810
2017-03-26T09:25:50.877Z,805
2017-03-26T09:26:31.668Z,805
2017-03-26T09:27:12.246Z,805
2017-03-26T09:27:52.982Z,805
2017-03-26T09:28:33.859Z,810
2017-03-26T09:29:15.227Z,815
2017-03-26T09:29:55.898Z,815
2017-03-26T09:30:36.688Z,820
2017-03-26T09:31:17.275Z,820
2017-03-26T09:31:57.848Z,835
2017-03-26T09:32:38.422Z,835
2017-03-26T09:33:19.041Z,840
2017-03-26T09:34:00.113Z,850
2017-03-26T09:34:40.745Z,855
2017-03-26T09:35:21.322Z,865
2017-03-26T09:36:02.170Z,865
2017-03-26T09:36:42.854Z,870
2017-03-26T09:37:23.717Z,870
2017-03-26T09:38:04.295Z,885
2017-03-26T09:38:44.877Z,895
2017-03-26T09:39:25.614Z,905
2017-03-26T09:40:06.204Z,910
2017-03-26T09:40:46.800Z,920
2017-03-26T09:41:27.804Z,920
2017-03-26T09:42:08.517Z,925
2017-03-26T09:42:49.363Z,920
2017-03-26T09:43:30.051Z,925
2017-03-26T09:44:11.230Z,925
2017-03-26T09:44:52.406Z,925
2017-03-26T09:45:33.195Z,935
2017-03-26T09:46:13.761Z,940
2017-03-26T09:46:54.349Z,940
2017-03-26T09:47:34.966Z,935
2017-03-26T09:48:15.554Z,935
2017-03-26T09:48:56.149Z,925
2017-03-26T09:49:36.722Z,925
2017-03-26T09:50:17.311Z,930
2017-03-26T09:50:57.888Z,935
2017-03-26T09:51:38.456Z,940
2017-03-26T09:52:19.044Z,940
2017-03-26T09:52:59.626Z,930
2017-03-26T09:53:40.211Z,925
2017-03-26T09:54:20.793Z,920
2017-03-26T09:55:01.376Z,910
2017-03-26T09:55:41.957Z,885
2017-03-26T09:56:22.541Z,885
2017-03-26T09:57:03.129Z,860
2017-03-26T09:57:43.700Z,845
2017-03-26T09:58:24.286Z,825
2017-03-26T09:59:04.875Z,815
2017-03-26T09:59:45.439Z,780
2017-03-26T10:00:26.034Z,770
2017-03-26T10:01:06.609Z,735
2017-03-26T10:01:47.187Z,720
2017-03-26T10:02:27.779Z,700
2017-03-26T10:03:08.349Z,680
2017-03-26T10:03:48.934Z,680
2017-03-26T10:04:29.521Z,680
2017-03-26T10:05:10.106Z,670
2017-03-26T10:05:50.683Z,675
2017-03-26T10:06:31.255Z,680
2017-03-26T10:07:11.850Z,695
2017-03-26T10:07:52.438Z,715
2017-03-26T10:08:33.026Z,720
2017-03-26T10:09:13.613Z,705
2017-03-26T10:09:54.185Z,700
2017-03-26T10:10:34.763Z,690
2017-03-26T10:11:15.348Z,685
2017-03-26T10:11:55.924Z,680
2017-03-26T10:12:36.507Z,675
2017-03-26T10:13:17.095Z,670
2017-03-26T10:13:57.662Z,640
2017-03-26T10:14:38.248Z,630
2017-03-26T10:15:18.829Z,610
2017-03-26T10:15:59.423Z,605
2017-03-26T10:16:39.995Z,575
2017-03-26T10:17:20.586Z,585
2017-03-26T10:18:01.155Z,570
2017-03-26T10:18:41.735Z,580
2017-03-26T10:19:22.315Z,565
2017-03-26T10:20:02.897Z,570
2017-03-26T10:20:43.487Z,560
2017-03-26T10:21:24.064Z,550
2017-03-26T10:22:04.649Z,550
2017-03-26T10:22:45.246Z,545
2017-03-26T10:23:25.819Z,550
2017-03-26T10:24:06.384Z,540
2017-03-26T10:24:46.963Z,535
2017-03-26T10:25:27.542Z,530
2017-03-26T10:26:08.121Z,510
2017-03-26T10:26:48.698Z,505
2017-03-26T10:27:29.281Z,490
2017-03-26T10:28:09.863Z,480
2017-03-26T10:28:50.452Z,455
2017-03-26T10:29:31.040Z,450
2017-03-26T10:30:11.617Z,445
2017-03-26T10:30:52.494Z,445
2017-03-26T10:31:33.310Z,440
2017-03-26T10:32:14.326Z,450
2017-03-26T10:32:54.902Z,450
2017-03-26T10:33:35.826Z,440
2017-03-26T10:34:16.765Z,435
2017-03-26T10:34:57.396Z,430
2017-03-26T10:35:37.939Z,430
2017-03-26T10:36:18.733Z,425
2017-03-26T10:36:59.550Z,425
2017-03-26T10:37:40.138Z,420
2017-03-26T10:38:20.741Z,420
2017-03-26T10:39:01.305Z,420
2017-03-26T10:39:41.866Z,415
2017-03-26T10:40:22.440Z,415
2017-03-26T10:41:03.009Z,415
2017-03-26T10:41:43.594Z,415
2017-03-26T10:42:24.159Z,415
2017-03-26T10:43:04.747Z,410
2017-03-26T10:43:45.333Z,410
2017-03-26T10:44:25.925Z,410
2017-03-26T10:45:06.509Z,410
2017-03-26T10:45:47.085Z,410
2017-03-26T10:46:27.731Z,410
2017-03-26T10:47:08.314Z,410
2017-03-26T10:47:48.895Z,415
2017-03-26T10:48:29.478Z,415
2017-03-26T10:49:10.047Z,415
2017-03-26T10:49:50.643Z,420
2017-03-26T10:50:31.226Z,420
2017-03-26T10:51:11.804Z,420
2017-03-26T10:51:52.377Z,420
2017-03-26T10:52:32.957Z,420
2017-03-26T10:53:13.555Z,420
2017-03-26T10:53:54.129Z,420
2017-03-26T10:54:34.703Z,420
2017-03-26T10:55:15.282Z,420
2017-03-26T10:55:55.880Z,420
2017-03-26T10:56:36.462Z,420
2017-03-26T10:57:17.049Z,420
2017-03-26T10:57:57.632Z,425
2017-03-26T10:58:38.228Z,430
2017-03-26T10:59:18.807Z,435
2017-03-26T10:59:59.403Z,430
2017-03-26T11:00:39.981Z,430
2017-03-26T11:01:20.556Z,430
2017-03-26T11:02:01.224Z,425
2017-03-26T11:02:41.846Z,425
2017-03-26T11:03:22.750Z,430
2017-03-26T11:04:03.646Z,425
2017-03-26T11:04:44.546Z,420
2017-03-26T11:05:25.309Z,415
2017-03-26T11:06:06.210Z,410
2017-03-26T11:06:46.952Z,410
2017-03-26T11:07:27.702Z,420
2017-03-26T11:08:08.288Z,430
2017-03-26T11:08:48.875Z,435
2017-03-26T11:09:29.460Z,430
2017-03-26T11:10:10.041Z,435
2017-03-26T11:10:50.816Z,435
2017-03-26T11:11:31.405Z,430
2017-03-26T11:12:12.149Z,430
2017-03-26T11:12:52.972Z,430
2017-03-26T11:13:33.557Z,430
2017-03-26T11:14:14.406Z,430
2017-03-26T11:14:55.001Z,430
2017-03-26T11:15:35.721Z,430
2017-03-26T11:16:16.412Z,435
2017-03-26T11:16:57.087Z,435
2017-03-26T11:17:37.920Z,435
2017-03-26T11:18:18.718Z,430
2017-03-26T11:18:59.479Z,430
2017-03-26T11:19:40.234Z,430
2017-03-26T11:20:20.822Z,430
2017-03-26T11:21:01.414Z,430
2017-03-26T11:21:42.233Z,430
2017-03-26T11:22:23.150Z,425
2017-03-26T11:23:03.992Z,425
2017-03-26T11:23:44.883Z,425
2017-03-26T11:24:25.469Z,425
2017-03-26T11:25:06.055Z,420
2017-03-26T11:25:46.644Z,420
2017-03-26T11:26:27.226Z,420
2017-03-26T11:27:07.812Z,410
2017-03-26T11:27:48.552Z,400
2017-03-26T11:28:29.134Z,405
2017-03-26T11:29:09.724Z,405
2017-03-26T11:29:50.304Z,400
2017-03-26T11:30:31.336Z,400
2017-03-26T11:33:10.205Z,380
2017-03-26T11:33:50.996Z,390
2017-03-26T11:34:31.572Z,385
2017-03-26T11:35:12.251Z,385
2017-03-26T11:35:52.826Z,390
2017-03-26T11:36:33.742Z,390
2017-03-26T11:37:14.369Z,395
2017-03-26T11:37:55.535Z,390
2017-03-26T11:38:36.147Z,385
2017-03-26T11:39:16.910Z,375
2017-03-26T11:39:58.310Z,375
2017-03-26T11:40:39.515Z,370
2017-03-26T11:41:20.513Z,370
2017-03-26T11:42:01.162Z,370
2017-03-26T11:42:42.089Z,370
2017-03-26T11:43:22.650Z,360
2017-03-26T11:44:04.200Z,370
2017-03-26T11:44:45.757Z,370
2017-03-26T11:45:26.339Z,370
2017-03-26T11:46:07.477Z,370
2017-03-26T11:46:48.568Z,365
2017-03-26T11:47:29.248Z,365
2017-03-26T11:48:09.830Z,365
2017-03-26T11:48:50.481Z,370
2017-03-26T11:49:31.055Z,370
2017-03-26T11:50:11.846Z,370
2017-03-26T11:50:52.404Z,370
2017-03-26T11:51:33.449Z,365
2017-03-26T11:52:14.160Z,370
2017-03-26T11:52:54.715Z,370
2017-03-26T11:53:35.439Z,365
2017-03-26T11:54:16.066Z,365
2017-03-26T11:54:57.013Z,365
2017-03-26T11:55:37.634Z,365
2017-03-26T11:56:18.410Z,360
2017-03-26T11:56:59.130Z,360
2017-03-26T11:57:39.767Z,365
2017-03-26T11:58:20.672Z,365
2017-03-26T11:59:01.470Z,365
2017-03-26T11:59:42.346Z,365
2017-03-26T12:00:23.055Z,360
2017-03-26T12:01:03.624Z,365
2017-03-26T12:01:44.214Z,365
2017-03-26T12:02:24.795Z,365
2017-03-26T12:03:05.385Z,365
2017-03-26T12:03:46.135Z,365
2017-03-26T12:04:26.718Z,365
2017-03-26T12:05:07.298Z,365
2017-03-26T12:05:47.877Z,365
2017-03-26T12:06:28.528Z,360
2017-03-26T12:07:09.101Z,360
2017-03-26T12:07:49.675Z,355
2017-03-26T12:08:30.248Z,355
2017-03-26T12:09:10.955Z,350
2017-03-26T12:09:51.537Z,355
2017-03-26T12:10:32.118Z,355
2017-03-26T12:11:12.696Z,355
2017-03-26T12:11:53.272Z,355
2017-03-26T12:12:34.328Z,360
2017-03-26T12:13:15.155Z,350
2017-03-26T12:13:56.080Z,360
2017-03-26T12:14:37.142Z,360
2017-03-26T12:15:17.926Z,360
2017-03-26T12:15:58.499Z,360
2017-03-26T12:16:39.183Z,360
2017-03-26T12:17:20.183Z,365
2017-03-26T12:18:01.197Z,365
2017-03-26T12:18:41.775Z,365
2017-03-26T12:19:22.364Z,360
2017-03-26T12:20:03.091Z,365
2017-03-26T12:20:43.770Z,365
2017-03-26T12:21:24.558Z,365
2017-03-26T12:22:05.208Z,365
2017-03-26T12:22:45.894Z,365
2017-03-26T12:23:26.480Z,365
2017-03-26T12:24:07.327Z,365
2017-03-26T12:24:47.923Z,360
2017-03-26T12:25:28.605Z,365
2017-03-26T12:26:09.176Z,365
2017-03-26T12:26:49.943Z,365
2017-03-26T12:27:30.567Z,365
2017-03-26T12:28:11.162Z,365
2017-03-26T12:28:51.872Z,360
2017-03-26T12:29:32.457Z,365
2017-03-26T12:30:13.205Z,365
2017-03-26T12:30:53.967Z,360
2017-03-26T12:31:34.543Z,360
2017-03-26T12:32:15.264Z,360
2017-03-26T12:32:55.846Z,365
2017-03-26T12:33:36.426Z,360
2017-03-26T12:34:17.073Z,360
2017-03-26T12:34:57.655Z,355
2017-03-26T12:35:38.523Z,365
2017-03-26T12:36:19.098Z,360
2017-03-26T12:36:59.667Z,360
2017-03-26T12:37:40.244Z,360
2017-03-26T12:38:20.826Z,355
2017-03-26T12:39:01.418Z,360
2017-03-26T12:39:42.267Z,360
2017-03-26T12:40:23.013Z,360
2017-03-26T12:41:03.897Z,365
2017-03-26T12:41:44.493Z,360
2017-03-26T12:42:25.067Z,360
2017-03-26T12:43:05.643Z,360
2017-03-26T12:43:46.208Z,360
2017-03-26T12:44:26.797Z,360
2017-03-26T12:45:07.389Z,360
2017-03-26T12:45:47.973Z,360
2017-03-26T12:46:28.545Z,355
2017-03-26T12:47:09.159Z,355
2017-03-26T12:47:49.733Z,360
2017-03-26T12:48:30.314Z,360
2017-03-26T12:49:10.881Z,355
2017-03-26T12:49:51.466Z,355
2017-03-26T12:50:32.048Z,355
2017-03-26T12:51:12.627Z,355
2017-03-26T12:51:53.211Z,355
2017-03-26T12:52:33.793Z,355
2017-03-26T12:53:14.379Z,355
2017-03-26T12:53:54.956Z,355
2017-03-26T12:54:35.546Z,355
2017-03-26T12:55:16.111Z,355
2017-03-26T12:55:56.695Z,355
2017-03-26T12:56:37.279Z,355
2017-03-26T12:57:17.848Z,350
2017-03-26T12:57:58.413Z,355
2017-03-26T12:58:39.000Z,355
2017-03-26T12:59:19.586Z,355
2017-03-26T13:00:00.166Z,355
2017-03-26T13:00:40.745Z,355
2017-03-26T13:01:21.320Z,355
2017-03-26T13:02:01.902Z,355
2017-03-26T13:02:42.482Z,355
2017-03-26T13:03:23.057Z,355
2017-03-26T13:04:03.637Z,360
2017-03-26T13:04:44.216Z,360
2017-03-26T13:05:24.796Z,360
2017-03-26T13:06:05.381Z,360
2017-03-26T13:06:45.957Z,365
2017-03-26T13:07:26.533Z,365
2017-03-26T13:08:07.115Z,360
2017-03-26T13:08:47.700Z,360
2017-03-26T13:09:28.280Z,355
2017-03-26T13:10:08.854Z,355
2017-03-26T13:10:49.441Z,360
2017-03-26T13:11:30.012Z,355
2017-03-26T13:12:10.585Z,350
2017-03-26T13:12:51.167Z,345
2017-03-26T13:13:31.747Z,345
2017-03-26T13:14:12.322Z,340
2017-03-26T13:14:52.900Z,330
2017-03-26T13:15:33.476Z,320
2017-03-26T13:16:14.070Z,320
2017-03-26T13:16:54.641Z,335
2017-03-26T13:17:35.227Z,315
2017-03-26T13:18:15.812Z,345
2017-03-26T13:18:56.396Z,345
2017-03-26T13:19:36.965Z,340
2017-03-26T13:20:17.543Z,345
2017-03-26T13:20:58.124Z,345
2017-03-26T13:21:38.694Z,350
2017-03-26T13:22:19.264Z,355
2017-03-26T13:23:00.394Z,365
2017-03-26T13:23:40.969Z,370
2017-03-26T13:24:21.583Z,380
2017-03-26T13:25:02.144Z,385
2017-03-26T13:25:42.724Z,395
2017-03-26T13:26:23.287Z,395
2017-03-26T13:27:03.863Z,400
2017-03-26T13:27:44.447Z,405
2017-03-26T13:28:25.029Z,415
2017-03-26T13:29:05.608Z,410
2017-03-26T13:29:46.187Z,395
2017-03-26T13:30:26.764Z,380
2017-03-26T13:31:07.349Z,360
2017-03-26T13:31:47.920Z,340
2017-03-26T13:32:28.509Z,340
2017-03-26T13:33:09.085Z,335
2017-03-26T13:33:49.659Z,330
2017-03-26T13:34:30.244Z,345
2017-03-26T13:35:10.829Z,345
2017-03-26T13:35:51.409Z,340
2017-03-26T13:36:31.989Z,340
2017-03-26T13:37:12.576Z,340
2017-03-26T13:37:53.160Z,335
2017-03-26T13:38:33.738Z,335
2017-03-26T13:39:14.315Z,340
2017-03-26T13:39:54.898Z,340
2017-03-26T13:40:35.476Z,340
2017-03-26T13:41:16.054Z,335
2017-03-26T13:41:56.631Z,340
2017-03-26T13:42:37.211Z,335
2017-03-26T13:43:17.789Z,335
2017-03-26T13:43:58.390Z,335
2017-03-26T13:44:38.968Z,335
2017-03-26T13:45:19.535Z,335
2017-03-26T13:46:00.100Z,335
2017-03-26T13:46:40.693Z,340
2017-03-26T13:47:21.272Z,335
2017-03-26T13:48:01.854Z,335
2017-03-26T13:48:42.434Z,335
2017-03-26T13:49:23.008Z,335
2017-03-26T13:50:03.594Z,335
2017-03-26T13:50:44.161Z,335
2017-03-26T13:51:24.759Z,335
2017-03-26T13:52:05.336Z,335
2017-03-26T13:52:45.910Z,340
2017-03-26T13:53:26.497Z,335
2017-03-26T13:54:07.076Z,335
2017-03-26T13:54:47.646Z,335
2017-03-26T13:55:28.228Z,330
2017-03-26T13:56:08.848Z,340
2017-03-26T13:56:49.383Z,335
2017-03-26T13:57:29.958Z,335
2017-03-26T13:58:10.543Z,335
2017-03-26T13:58:51.128Z,335
2017-03-26T13:59:31.722Z,335
2017-03-26T14:00:12.283Z,335
2017-03-26T14:00:52.866Z,330
2017-03-26T14:01:33.437Z,330
2017-03-26T14:02:14.021Z,330
2017-03-26T14:02:54.617Z,335
2017-03-26T14:03:35.186Z,330
2017-03-26T14:04:15.772Z,335
2017-03-26T17:37:16.128Z,10
2017-03-26T17:37:56.677Z,5
2017-03-26T17:38:37.241Z,5
2017-03-26T17:39:17.803Z,5
2017-03-26T17:39:58.395Z,5
2017-03-26T17:40:38.926Z,5
2017-03-26T17:41:19.491Z,5
2017-03-26T17:42:00.020Z,5
2017-03-26T17:42:40.591Z,5
2017-03-26T17:43:21.168Z,5
2017-03-26T17:44:01.740Z,5
2017-03-26T17:44:42.319Z,0
2017-03-26T17:45:22.893Z,0
2017-03-26T17:46:03.454Z,0
2017-03-26T17:46:44.024Z,0
2017-03-26T17:47:24.610Z,0
2017-03-26T17:48:05.181Z,0
2017-03-26T17:48:45.743Z,0
2017-03-26T17:49:26.311Z,0
2017-03-26T17:50:06.909Z,0
2017-03-26T17:50:47.479Z,0
2017-03-26T17:51:28.059Z,0
2017-03-26T17:52:08.633Z,0
2017-03-26T17:52:49.226Z,0
2017-03-26T17:53:29.804Z,0
2017-03-26T17:54:10.395Z,0
2017-03-26T17:54:50.966Z,0
2017-03-26T17:55:31.536Z,0
2017-03-26T17:56:12.124Z,0
2017-03-26T17:56:52.704Z,0
2017-03-26T17:57:33.286Z,0
2017-03-26T17:58:13.870Z,0
2017-03-26T17:58:54.455Z,0
2017-03-26T17:59:35.004Z,0
2017-03-26T18:00:15.579Z,0
2017-03-26T18:00:56.165Z,0
2017-03-26T18:01:36.743Z,0
2017-03-26T18:02:17.313Z,0
2017-03-26T18:02:57.897Z,0
2017-03-26T18:03:38.480Z,0
2017-03-26T18:04:19.067Z,0
2017-03-26T18:04:59.648Z,0
2017-03-26T18:05:40.232Z,0
2017-03-26T18:06:20.810Z,0
2017-03-26T18:07:01.389Z,0
2017-03-26T18:07:41.974Z,0
2017-03-26T18:08:22.558Z,0
2017-03-26T18:09:03.134Z,0
2017-03-26T18:09:43.719Z,0
2017-03-26T18:10:24.299Z,0
2017-03-26T18:11:04.885Z,0
2017-03-26T18:11:45.465Z,0
2017-03-26T18:12:26.051Z,0
2017-03-26T18:13:06.619Z,0
2017-03-26T18:13:47.193Z,0
2017-03-26T18:14:27.779Z,0
2017-03-26T18:15:08.359Z,0
2017-03-26T18:15:48.942Z,0
2017-03-26T18:16:29.533Z,0
2017-03-26T18:17:10.114Z,0
2017-03-26T18:17:50.687Z,0
2017-03-26T18:18:31.258Z,0
2017-03-26T18:19:11.827Z,0
2017-03-26T18:19:52.411Z,0
2017-03-26T18:20:33.030Z,0
2017-03-26T18:21:13.604Z,0
2017-03-26T18:21:54.197Z,0
2017-03-26T18:22:34.779Z,0
2017-03-26T18:23:15.364Z,0
2017-03-26T18:23:55.943Z,0
2017-03-26T18:24:36.523Z,0
2017-03-26T18:25:17.104Z,0
2017-03-26T18:25:57.689Z,0
2017-03-26T18:26:38.269Z,0
2017-03-26T18:27:19.043Z,0
2017-03-26T18:27:59.825Z,0
2017-03-26T18:28:40.573Z,0
2017-03-26T18:29:21.197Z,0
2017-03-26T18:30:01.834Z,0
2017-03-26T18:30:42.400Z,0
2017-03-26T18:31:22.971Z,0
2017-03-26T18:32:03.552Z,0
2017-03-26T18:32:44.380Z,0
2017-03-26T18:33:25.088Z,0
2017-03-26T18:34:05.777Z,0
2017-03-26T18:34:46.515Z,0
2017-03-26T18:35:27.307Z,0
2017-03-26T18:36:08.248Z,0
2017-03-26T18:36:48.925Z,0
2017-03-26T18:37:29.774Z,0
2017-03-26T18:38:10.430Z,0
2017-03-26T18:38:51.173Z,0